This is the latest recevied weather packets stored in our database for station/object OK1VCF-5. If no packets are shown the sender has not sent any weather packets the latest 10 day(s).
| Time | Temp. | Humidity | Pressure | Rain* | Wind** | Luminosity | Snow |
|---|---|---|---|---|---|---|---|
| 1778008514 | 16.11° C | 76% | 1007.8 hPa | - | - | - | - |
| 1778008513 | 16.11° C | 76% | 1007.8 hPa | - | - | - | - |
| 1778007613 | 16.67° C | 77% | 1007.7 hPa | - | - | - | - |
| 1778006713 | 16.67° C | 71% | 1007.7 hPa | - | - | - | - |
| 1778003110 | 18.33° C | 63% | 1007.8 hPa | - | - | - | - |
| 1778002208 | 18.89° C | 62% | 1008 hPa | - | - | - | - |
| 1778001307 | 18.89° C | 61% | 1008 hPa | - | - | - | - |
| 1778000406 | 20° C | 60% | 1008.1 hPa | - | - | - | - |
| 1777999504 | 20° C | 62% | 1008.3 hPa | - | - | - | - |
| 1777995000 | 23.89° C | 48% | 1008.4 hPa | - | - | - | - |
| 1777994100 | 23.33° C | 54% | 1008.3 hPa | - | - | - | - |
| 1777993199 | 23.33° C | 58% | 1008.4 hPa | - | - | - | - |
| 1777992300 | 21.11° C | 64% | 1008.6 hPa | - | - | - | - |
| 1777991399 | 19.44° C | 74% | 1009 hPa | - | - | - | - |
| 1777990499 | 17.78° C | 76% | 1008.8 hPa | - | - | - | - |
| 1777989597 | 20° C | 73% | 1009.2 hPa | - | - | - | - |
| 1777988697 | 25.56° C | 41% | 1009.2 hPa | - | - | - | - |
| 1777987796 | 27.78° C | 36% | 1008.8 hPa | - | - | - | - |
| 1777986895 | 27.78° C | 38% | 1008.8 hPa | - | - | - | - |
| 1777986037 | 28.89° C | 36% | 1009.2 hPa | - | - | - | - |
| 1777985999 | 28.89° C | 36% | 1009.2 hPa | - | - | - | - |
| 1777985993 | 28.89° C | 36% | 1009.2 hPa | - | - | - | - |
| 1777985093 | 26.67° C | 37% | 1009.2 hPa | - | - | - | - |
| 1777983292 | 27.78° C | 38% | 1009.6 hPa | - | - | - | - |
| 1777982391 | 26.67° C | 39% | 1009.8 hPa | - | - | - | - |
* Rain since midnight (hover to see other rain measurements)
** Current wind speed in m/s (hover to see current wind gust speed)